createdAt,value
2019-02-27T00:01:17.076Z,94.98
2019-02-27T00:03:46.267Z,94.64
2019-02-27T00:06:16.047Z,94.67
2019-02-27T00:08:45.710Z,94.66
2019-02-27T00:11:15.187Z,94.85
2019-02-27T00:13:44.428Z,94.64
2019-02-27T00:16:13.892Z,94.68
2019-02-27T00:18:43.181Z,94.59
2019-02-27T00:21:12.531Z,94.74
2019-02-27T00:23:42.145Z,95.24
2019-02-27T00:26:11.546Z,95.33
2019-02-27T00:28:40.883Z,95.59
2019-02-27T00:31:11.559Z,95.28
2019-02-27T00:33:41.408Z,95.28
2019-02-27T00:36:12.315Z,95.25
2019-02-27T00:38:41.769Z,95.18
2019-02-27T00:41:12.804Z,95.14
2019-02-27T00:43:42.377Z,95.21
2019-02-27T00:46:13.319Z,95.34
2019-02-27T00:48:43.011Z,95.50
2019-02-27T00:51:12.873Z,95.50
2019-02-27T00:53:42.578Z,95.57
2019-02-27T00:56:12.811Z,95.56
2019-02-27T00:58:42.192Z,95.49
2019-02-27T01:01:12.701Z,95.38
2019-02-27T01:03:42.719Z,95.07
2019-02-27T01:06:14.794Z,94.79
2019-02-27T01:08:43.784Z,94.58
2019-02-27T01:11:13.121Z,94.49
2019-02-27T01:13:42.613Z,94.48
2019-02-27T01:16:12.040Z,94.61
2019-02-27T01:18:41.392Z,94.67
2019-02-27T01:21:10.777Z,94.83
2019-02-27T01:23:43.884Z,95.00
2019-02-27T01:26:11.079Z,94.99
2019-02-27T01:28:44.732Z,95.10
2019-02-27T01:31:11.387Z,95.11
2019-02-27T01:33:40.722Z,95.09
2019-02-27T01:36:10.048Z,95.30
2019-02-27T01:38:39.394Z,95.25
2019-02-27T01:41:08.681Z,95.15
2019-02-27T01:43:40.077Z,95.19
2019-02-27T01:46:09.088Z,95.16
2019-02-27T01:48:42.574Z,95.14
2019-02-27T01:51:09.654Z,95.23
2019-02-27T01:53:40.469Z,95.51
2019-02-27T01:56:10.356Z,95.50
2019-02-27T01:58:43.472Z,95.58
2019-02-27T02:01:10.733Z,95.57
2019-02-27T02:03:40.281Z,95.58
2019-02-27T02:06:09.610Z,95.69
2019-02-27T02:08:38.878Z,95.66
2019-02-27T02:11:08.643Z,95.75
2019-02-27T02:13:57.344Z,95.59
2019-02-27T02:16:51.736Z,95.63
2019-02-27T02:20:13.915Z,95.72
2019-02-27T02:23:30.509Z,95.87
2019-02-27T02:26:13.324Z,95.90
2019-02-27T02:29:07.737Z,95.82
2019-02-27T02:31:47.519Z,95.51
2019-02-27T02:34:44.535Z,95.17
2019-02-27T02:37:30.049Z,95.16
2019-02-27T02:40:30.797Z,95.11
2019-02-27T02:43:29.561Z,95.26
2019-02-27T02:46:45.529Z,95.38
2019-02-27T02:50:00.986Z,95.44
2019-02-27T02:53:17.631Z,95.60
2019-02-27T02:56:39.994Z,95.39
2019-02-27T02:59:50.686Z,95.31
2019-02-27T03:02:52.535Z,95.40
2019-02-27T03:05:49.090Z,95.28
2019-02-27T03:08:56.306Z,95.30
2019-02-27T03:12:15.559Z,95.43
2019-02-27T03:15:33.591Z,95.37
2019-02-27T03:18:40.508Z,95.56
2019-02-27T03:21:52.230Z,95.54
2019-02-27T03:24:53.749Z,95.61
2019-02-27T03:28:05.064Z,95.57
2019-02-27T03:31:00.614Z,95.48
2019-02-27T03:34:09.093Z,95.46
2019-02-27T03:37:13.104Z,95.23
2019-02-27T03:40:25.133Z,95.00
2019-02-27T03:43:20.119Z,95.41
2019-02-27T03:46:41.751Z,96.02
2019-02-27T03:49:55.739Z,96.01
2019-02-27T03:53:12.083Z,96.12
2019-02-27T03:56:28.285Z,96.27
2019-02-27T03:59:24.165Z,96.28
2019-02-27T04:02:29.288Z,96.34
2019-02-27T04:05:24.658Z,96.53
2019-02-27T04:08:25.723Z,96.61
2019-02-27T04:10:54.992Z,96.48
2019-02-27T04:13:27.730Z,96.36
2019-02-27T04:15:55.662Z,96.39
2019-02-27T04:18:27.534Z,96.52
2019-02-27T04:20:54.248Z,96.49
2019-02-27T04:23:23.759Z,96.48
2019-02-27T04:25:53.081Z,96.36
2019-02-27T04:28:22.414Z,96.17
2019-02-27T04:30:52.096Z,96.07
2019-02-27T04:33:23.437Z,96.09
2019-02-27T04:35:52.485Z,96.18
2019-02-27T04:38:21.849Z,96.00
2019-02-27T04:40:51.160Z,95.82
2019-02-27T04:43:20.484Z,95.67
2019-02-27T04:45:49.862Z,95.83
2019-02-27T04:48:19.270Z,95.79
2019-02-27T04:50:48.585Z,95.72
2019-02-27T04:53:17.863Z,95.62
2019-02-27T04:55:47.983Z,95.64
2019-02-27T04:58:18.260Z,96.03
2019-02-27T05:00:47.798Z,95.79
2019-02-27T05:03:17.253Z,95.78
2019-02-27T05:05:46.548Z,96.08
2019-02-27T05:08:15.918Z,96.13
2019-02-27T05:10:45.275Z,96.08
2019-02-27T05:13:14.599Z,96.13
2019-02-27T05:15:44.123Z,96.07
2019-02-27T05:18:13.524Z,96.03
2019-02-27T05:20:44.888Z,96.02
2019-02-27T05:23:14.131Z,96.15
2019-02-27T05:25:43.509Z,96.09
2019-02-27T05:28:12.857Z,96.08
2019-02-27T05:30:44.753Z,96.19
2019-02-27T05:33:13.224Z,96.25
2019-02-27T05:35:42.550Z,96.28
2019-02-27T05:38:12.177Z,96.54
2019-02-27T05:40:41.475Z,96.34
2019-02-27T05:43:13.168Z,96.13
2019-02-27T05:45:41.946Z,96.08
2019-02-27T05:48:11.283Z,95.99
2019-02-27T05:50:40.544Z,95.89
2019-02-27T05:53:10.651Z,95.78
2019-02-27T05:55:40.038Z,95.89
2019-02-27T05:58:09.409Z,95.89
2019-02-27T06:00:38.751Z,95.90
2019-02-27T06:03:08.086Z,95.96
2019-02-27T06:05:37.422Z,95.97
2019-02-27T06:08:06.964Z,96.08
2019-02-27T06:10:36.337Z,96.67
2019-02-27T06:13:05.683Z,96.62
2019-02-27T06:15:35.074Z,96.58
2019-02-27T06:18:04.411Z,96.59
2019-02-27T06:20:33.779Z,96.58
2019-02-27T06:23:04.497Z,96.72
2019-02-27T06:25:34.324Z,96.73
2019-02-27T06:28:03.668Z,96.82
2019-02-27T06:30:33.154Z,96.80
2019-02-27T06:33:02.469Z,96.23
2019-02-27T06:35:34.241Z,96.31
2019-02-27T06:38:03.003Z,95.69
2019-02-27T06:40:32.341Z,95.14
2019-02-27T06:43:01.713Z,94.06
2019-02-27T06:45:31.301Z,89.60
2019-02-27T06:48:00.603Z,95.31
2019-02-27T06:50:29.992Z,86.03
2019-02-27T06:52:59.485Z,94.78
2019-02-27T06:55:28.884Z,94.13
2019-02-27T06:57:58.242Z,83.78
2019-02-27T07:00:27.639Z,83.96
2019-02-27T07:02:57.011Z,92.56
2019-02-27T07:05:26.365Z,90.08
2019-02-27T07:07:55.710Z,90.04
2019-02-27T07:10:25.029Z,88.20
2019-02-27T07:12:55.337Z,90.45
2019-02-27T07:15:24.763Z,80.55
2019-02-27T07:17:54.109Z,87.89
2019-02-27T07:20:24.527Z,85.65
2019-02-27T07:22:54.731Z,88.84
2019-02-27T07:25:24.142Z,89.45
2019-02-27T07:27:53.456Z,89.24
2019-02-27T07:30:23.897Z,89.46
2019-02-27T07:32:53.374Z,87.82
2019-02-27T07:35:25.496Z,82.60
2019-02-27T07:37:53.994Z,84.88
2019-02-27T07:40:23.383Z,78.52
2019-02-27T07:42:52.664Z,77.16
2019-02-27T07:45:22.808Z,77.48
2019-02-27T07:47:52.376Z,77.13
2019-02-27T07:50:21.790Z,73.90
2019-02-27T07:52:52.248Z,71.39
2019-02-27T07:55:23.287Z,70.40
2019-02-27T07:57:53.016Z,67.38
2019-02-27T08:00:22.342Z,67.29
2019-02-27T08:02:51.651Z,63.67
2019-02-27T08:05:21.153Z,61.85
2019-02-27T08:07:50.483Z,60.26
2019-02-27T08:10:20.153Z,60.33
2019-02-27T08:12:49.589Z,59.18
2019-02-27T08:15:19.341Z,58.94
2019-02-27T08:17:48.820Z,55.91
2019-02-27T08:20:21.087Z,55.95
2019-02-27T08:22:49.813Z,56.95
2019-02-27T08:25:19.278Z,57.84
2019-02-27T08:27:48.720Z,59.06
2019-02-27T08:30:20.048Z,59.34
2019-02-27T08:32:49.335Z,60.63
2019-02-27T08:35:18.655Z,61.16
2019-02-27T08:37:48.179Z,60.65
2019-02-27T08:40:17.503Z,61.29
2019-02-27T08:42:46.831Z,61.55
2019-02-27T08:45:19.591Z,61.63
2019-02-27T08:47:47.332Z,61.74
2019-02-27T08:50:16.949Z,61.42
2019-02-27T08:52:50.181Z,61.26
2019-02-27T08:55:20.053Z,61.69
2019-02-27T08:57:49.855Z,62.12
2019-02-27T09:00:23.148Z,61.84
2019-02-27T09:02:52.205Z,61.22
2019-02-27T09:05:21.820Z,61.54
2019-02-27T09:07:51.122Z,61.62
2019-02-27T09:10:23.361Z,62.25
2019-02-27T09:12:51.892Z,61.74
2019-02-27T09:15:21.310Z,61.84
2019-02-27T09:17:50.646Z,62.03
2019-02-27T09:20:20.603Z,60.98
2019-02-27T09:22:50.272Z,61.78
2019-02-27T09:25:23.746Z,60.55
2019-02-27T09:27:50.804Z,60.33
2019-02-27T09:30:20.149Z,60.86
2019-02-27T09:32:49.540Z,61.33
2019-02-27T09:35:18.963Z,60.43
2019-02-27T09:37:51.139Z,59.95
2019-02-27T09:40:19.732Z,61.28
2019-02-27T09:42:50.295Z,60.20
2019-02-27T09:45:26.534Z,59.82
2019-02-27T09:47:59.333Z,59.52
2019-02-27T09:50:34.716Z,59.49
2019-02-27T09:53:04.442Z,59.89
2019-02-27T09:55:33.976Z,60.09
2019-02-27T09:58:03.450Z,58.39
2019-02-27T10:00:43.825Z,58.62
2019-02-27T10:03:13.598Z,57.56
2019-02-27T10:05:42.933Z,58.45
2019-02-27T10:08:12.989Z,57.42
2019-02-27T10:10:45.173Z,56.72
2019-02-27T10:13:13.380Z,56.73
2019-02-27T10:15:42.909Z,52.51
2019-02-27T10:18:12.277Z,48.33
2019-02-27T10:20:41.694Z,46.28
2019-02-27T10:23:11.101Z,44.54
2019-02-27T10:25:43.276Z,42.69
2019-02-27T10:28:11.515Z,43.93
2019-02-27T10:30:40.948Z,43.83
2019-02-27T10:33:11.156Z,45.19
2019-02-27T10:35:41.261Z,44.41
2019-02-27T10:38:10.628Z,44.67
2019-02-27T10:40:39.997Z,47.77
2019-02-27T10:43:09.333Z,48.88
2019-02-27T10:45:38.848Z,50.04
2019-02-27T10:48:08.113Z,50.28
2019-02-27T10:50:37.506Z,52.26
2019-02-27T10:53:07.066Z,51.19
2019-02-27T10:55:36.385Z,47.48
2019-02-27T10:58:07.681Z,44.35
2019-02-27T11:00:36.977Z,41.71
2019-02-27T11:03:06.302Z,41.70
2019-02-27T11:05:35.648Z,41.77
2019-02-27T11:08:05.345Z,38.05
2019-02-27T11:10:34.668Z,38.78
2019-02-27T11:13:06.818Z,40.12
2019-02-27T11:15:35.333Z,39.70
2019-02-27T11:18:05.860Z,40.32
2019-02-27T11:20:35.220Z,39.13
2019-02-27T11:23:07.107Z,41.01
2019-02-27T11:25:35.921Z,40.58
2019-02-27T11:28:05.423Z,41.70
2019-02-27T11:30:36.937Z,40.45
2019-02-27T11:33:06.431Z,42.15
2019-02-27T11:35:35.757Z,44.04
2019-02-27T11:38:05.583Z,42.26
2019-02-27T11:40:35.029Z,43.69
2019-02-27T11:43:06.947Z,43.20
2019-02-27T11:45:35.636Z,43.69
2019-02-27T11:48:05.045Z,44.33
2019-02-27T11:50:34.393Z,47.29
2019-02-27T11:53:03.771Z,51.68
2019-02-27T11:55:33.133Z,53.67
2019-02-27T11:58:05.343Z,55.05
2019-02-27T12:00:34.182Z,55.35
2019-02-27T12:03:03.445Z,55.67
2019-02-27T12:05:34.457Z,56.18
2019-02-27T12:08:03.917Z,56.58
2019-02-27T12:10:33.355Z,56.15
2019-02-27T12:13:02.623Z,56.98
2019-02-27T12:15:31.984Z,57.11
2019-02-27T12:18:01.825Z,57.13
2019-02-27T12:20:31.155Z,57.20
2019-02-27T12:23:00.699Z,57.56
2019-02-27T12:25:30.458Z,58.00
2019-02-27T12:28:01.906Z,57.63
2019-02-27T12:30:31.210Z,58.14
2019-02-27T12:33:00.483Z,58.53
2019-02-27T12:35:30.971Z,59.30
2019-02-27T12:38:00.235Z,59.92
2019-02-27T12:40:29.679Z,59.36
2019-02-27T12:42:59.057Z,59.34
2019-02-27T12:45:29.644Z,59.79
2019-02-27T12:47:59.280Z,59.91
2019-02-27T12:50:31.066Z,60.14
2019-02-27T12:52:59.998Z,60.54
2019-02-27T12:55:29.260Z,59.49
2019-02-27T12:57:58.668Z,58.86
2019-02-27T13:00:28.947Z,59.70
2019-02-27T13:02:59.078Z,58.43
2019-02-27T13:05:28.839Z,59.26
2019-02-27T13:07:58.223Z,59.32
2019-02-27T13:10:32.950Z,59.66
2019-02-27T13:12:58.758Z,59.98
2019-02-27T13:15:28.229Z,60.20
2019-02-27T13:17:58.026Z,59.61
2019-02-27T13:20:27.949Z,59.00
2019-02-27T13:22:57.267Z,59.73
2019-02-27T13:25:26.749Z,59.76
2019-02-27T13:27:56.240Z,58.70
2019-02-27T13:30:25.562Z,59.38
2019-02-27T13:32:54.863Z,58.98
2019-02-27T13:35:24.267Z,59.16
2019-02-27T13:37:53.643Z,59.70
2019-02-27T13:40:23.065Z,59.69
2019-02-27T13:42:53.669Z,59.06
2019-02-27T13:45:24.503Z,58.90
2019-02-27T13:47:53.988Z,58.65
2019-02-27T13:50:26.734Z,58.24
2019-02-27T13:52:55.127Z,58.78
2019-02-27T13:55:24.702Z,59.85
2019-02-27T13:57:58.774Z,59.41
2019-02-27T14:00:31.202Z,60.14
2019-02-27T14:03:00.468Z,59.46
2019-02-27T14:05:35.060Z,60.09
2019-02-27T14:08:01.120Z,60.35
2019-02-27T14:10:30.857Z,60.48
2019-02-27T14:13:00.146Z,59.57
2019-02-27T14:15:31.371Z,59.58
2019-02-27T14:18:00.637Z,59.39
2019-02-27T14:20:30.138Z,60.46
2019-02-27T14:22:59.532Z,59.57
2019-02-27T14:25:32.679Z,59.45
2019-02-27T14:28:00.025Z,59.49
2019-02-27T14:30:32.034Z,58.17
2019-02-27T14:33:01.618Z,58.12
2019-02-27T14:35:35.116Z,58.79
2019-02-27T14:38:02.228Z,57.65
2019-02-27T14:40:31.503Z,57.58
2019-02-27T14:43:01.203Z,57.00
2019-02-27T14:45:30.645Z,56.70
2019-02-27T14:47:59.984Z,57.71
2019-02-27T14:50:33.579Z,58.13
2019-02-27T14:53:00.431Z,58.56
2019-02-27T14:55:29.794Z,57.20
2019-02-27T14:57:59.058Z,57.88
2019-02-27T15:00:31.615Z,58.44
2019-02-27T15:03:00.945Z,59.36
2019-02-27T15:05:30.505Z,59.11
2019-02-27T15:07:59.890Z,61.05
2019-02-27T15:10:29.206Z,59.68
2019-02-27T15:12:58.528Z,59.36
2019-02-27T15:15:29.298Z,59.47
2019-02-27T15:17:58.950Z,59.15
2019-02-27T15:20:28.391Z,59.52
2019-02-27T15:22:57.665Z,58.44
2019-02-27T15:25:27.754Z,58.12
2019-02-27T15:27:59.636Z,58.82
2019-02-27T15:30:28.929Z,58.33
2019-02-27T15:33:03.845Z,58.05
2019-02-27T15:35:29.284Z,58.60
2019-02-27T15:37:58.642Z,58.21
2019-02-27T15:40:29.620Z,58.85
2019-02-27T15:42:59.499Z,58.13
2019-02-27T15:45:29.173Z,58.67
2019-02-27T15:47:58.543Z,59.61
2019-02-27T15:50:28.187Z,58.47
2019-02-27T15:52:57.512Z,58.86
2019-02-27T15:55:26.781Z,59.30
2019-02-27T15:57:56.294Z,59.75
2019-02-27T16:00:25.759Z,59.69
2019-02-27T16:02:55.037Z,61.17
2019-02-27T16:05:30.191Z,60.77
2019-02-27T16:07:55.552Z,60.30
2019-02-27T16:10:25.078Z,61.03
2019-02-27T16:13:00.012Z,60.47
2019-02-27T16:15:25.997Z,61.57
2019-02-27T16:17:55.370Z,61.35
2019-02-27T16:20:24.628Z,61.22
2019-02-27T16:22:54.018Z,61.29
2019-02-27T16:25:23.470Z,61.36
2019-02-27T16:27:52.794Z,62.16
2019-02-27T16:30:31.084Z,62.08
2019-02-27T16:32:57.300Z,61.30
2019-02-27T16:35:26.664Z,62.10
2019-02-27T16:37:57.689Z,62.47
2019-02-27T16:40:27.344Z,62.27
2019-02-27T16:42:56.699Z,64.45
2019-02-27T16:45:32.198Z,63.39
2019-02-27T16:47:59.168Z,63.68
2019-02-27T16:50:28.640Z,64.91
2019-02-27T16:52:58.234Z,62.96
2019-02-27T16:55:27.516Z,62.96
2019-02-27T16:57:57.817Z,61.56
2019-02-27T17:00:28.695Z,61.33
2019-02-27T17:02:57.988Z,61.34
2019-02-27T17:05:27.381Z,60.87
2019-02-27T17:08:00.307Z,59.71
2019-02-27T17:10:29.588Z,59.92
2019-02-27T17:12:59.042Z,59.29
2019-02-27T17:15:28.569Z,60.08
2019-02-27T17:17:57.838Z,58.81
2019-02-27T17:20:27.401Z,57.49
2019-02-27T17:22:56.879Z,58.43
2019-02-27T17:25:29.372Z,57.58
2019-02-27T17:27:57.427Z,58.07
2019-02-27T17:30:28.730Z,58.05
2019-02-27T17:32:58.215Z,58.63
2019-02-27T17:35:27.549Z,58.05
2019-02-27T17:37:56.826Z,58.90
2019-02-27T17:40:26.425Z,58.26
2019-02-27T17:42:55.854Z,58.55
2019-02-27T17:45:25.175Z,59.21
2019-02-27T17:47:54.452Z,59.63
2019-02-27T17:50:23.887Z,59.34
2019-02-27T17:52:53.296Z,59.68
2019-02-27T17:55:22.785Z,59.65
2019-02-27T17:57:52.129Z,59.23
2019-02-27T18:00:31.239Z,60.11
2019-02-27T18:03:00.599Z,61.08
2019-02-27T18:05:29.910Z,60.99
2019-02-27T18:07:59.309Z,61.19
2019-02-27T18:10:28.633Z,61.77
2019-02-27T18:12:58.838Z,62.25
2019-02-27T18:15:29.091Z,62.85
2019-02-27T18:17:58.403Z,62.84
2019-02-27T18:20:27.745Z,62.76
2019-02-27T18:22:57.099Z,63.61
2019-02-27T18:25:26.380Z,64.16
2019-02-27T18:27:58.516Z,64.64
2019-02-27T18:30:27.070Z,65.57
2019-02-27T18:32:56.397Z,65.93
2019-02-27T18:35:28.768Z,66.90
2019-02-27T18:37:57.112Z,66.79
2019-02-27T18:40:26.439Z,66.89
2019-02-27T18:42:56.694Z,66.63
2019-02-27T18:45:26.262Z,67.00
2019-02-27T18:47:55.632Z,67.26
2019-02-27T18:50:25.689Z,67.77
2019-02-27T18:52:55.084Z,67.75
2019-02-27T18:55:29.506Z,68.23
2019-02-27T18:57:55.496Z,68.46
2019-02-27T19:00:25.053Z,68.77
2019-02-27T19:02:54.785Z,69.26
2019-02-27T19:05:24.350Z,69.47
2019-02-27T19:07:55.047Z,70.06
2019-02-27T19:10:24.634Z,70.15
2019-02-27T19:12:54.041Z,70.39
2019-02-27T19:15:23.954Z,70.80
2019-02-27T19:17:53.366Z,71.15
2019-02-27T19:20:25.213Z,71.31
2019-02-27T19:22:54.719Z,71.87
2019-02-27T19:25:24.107Z,71.86
2019-02-27T19:27:53.667Z,72.22
2019-02-27T19:30:23.204Z,72.44
2019-02-27T19:32:55.211Z,72.40
2019-02-27T19:35:23.799Z,72.72
2019-02-27T19:37:53.728Z,72.71
2019-02-27T19:40:23.676Z,72.28
2019-02-27T19:42:54.778Z,72.35
2019-02-27T19:45:24.246Z,72.38
2019-02-27T19:47:55.654Z,72.68
2019-02-27T19:50:24.828Z,73.09
2019-02-27T19:52:54.260Z,72.79
2019-02-27T19:55:26.756Z,72.83
2019-02-27T19:57:55.029Z,73.01
2019-02-27T20:00:25.989Z,72.95
2019-02-27T20:03:00.340Z,72.81
2019-02-27T20:05:26.554Z,72.68
2019-02-27T20:07:56.149Z,72.58
2019-02-27T20:10:29.054Z,72.32
2019-02-27T20:12:56.938Z,72.55
2019-02-27T20:15:26.795Z,72.80
2019-02-27T20:17:56.151Z,72.81
2019-02-27T20:20:26.017Z,72.67
2019-02-27T20:22:55.318Z,73.07
2019-02-27T20:25:25.047Z,73.63
2019-02-27T20:27:57.866Z,74.08
2019-02-27T20:30:25.997Z,74.05
2019-02-27T20:32:55.310Z,73.81
2019-02-27T20:35:24.734Z,73.73
2019-02-27T20:37:54.030Z,73.39
2019-02-27T20:40:23.365Z,73.40
2019-02-27T20:42:55.191Z,73.51
2019-02-27T20:45:26.520Z,73.34
2019-02-27T20:48:00.495Z,73.22
2019-02-27T20:50:35.062Z,73.31
2019-02-27T20:53:04.026Z,73.42
2019-02-27T20:55:33.289Z,73.46
2019-02-27T20:58:02.607Z,73.56
2019-02-27T21:00:35.981Z,73.83
2019-02-27T21:03:03.269Z,73.17
2019-02-27T21:05:32.886Z,73.19
2019-02-27T21:08:02.659Z,72.82
2019-02-27T21:10:32.126Z,72.66
2019-02-27T21:13:01.628Z,72.15
2019-02-27T21:15:32.496Z,72.33
2019-02-27T21:18:02.226Z,72.58
2019-02-27T21:20:33.101Z,72.19
2019-02-27T21:23:02.661Z,72.03
2019-02-27T21:25:32.125Z,71.79
2019-02-27T21:28:06.604Z,72.14
2019-02-27T21:30:32.496Z,72.02
2019-02-27T21:33:02.011Z,72.39
2019-02-27T21:35:31.393Z,72.86
2019-02-27T21:38:00.683Z,72.74
2019-02-27T21:40:30.195Z,72.59
2019-02-27T21:42:59.550Z,72.65
2019-02-27T21:45:28.973Z,72.70
2019-02-27T21:47:58.374Z,72.73
2019-02-27T21:50:27.736Z,72.86
2019-02-27T21:52:57.067Z,72.59
2019-02-27T21:55:26.724Z,72.50
2019-02-27T21:57:58.154Z,72.49
2019-02-27T22:00:27.834Z,72.16
2019-02-27T22:02:57.126Z,71.81
2019-02-27T22:05:26.575Z,71.89
2019-02-27T22:07:56.177Z,72.15
2019-02-27T22:10:25.455Z,72.06
2019-02-27T22:12:54.741Z,71.83
2019-02-27T22:15:26.444Z,72.14
2019-02-27T22:17:55.910Z,72.53
2019-02-27T22:20:26.783Z,72.09
2019-02-27T22:22:56.595Z,72.22
2019-02-27T22:25:30.236Z,72.16
2019-02-27T22:27:58.482Z,72.33
2019-02-27T22:30:27.904Z,72.29
2019-02-27T22:32:57.259Z,72.29
2019-02-27T22:35:26.754Z,72.00
2019-02-27T22:37:56.060Z,72.17
2019-02-27T22:40:25.386Z,72.28
2019-02-27T22:42:54.819Z,72.78
2019-02-27T22:45:24.140Z,72.85
2019-02-27T22:47:54.675Z,72.93
2019-02-27T22:50:24.312Z,73.28
2019-02-27T22:52:54.778Z,73.18
2019-02-27T22:55:24.675Z,73.45
2019-02-27T22:57:54.739Z,73.75
2019-02-27T23:00:52.738Z,73.39
2019-02-27T23:03:23.735Z,73.79
2019-02-27T23:05:53.807Z,73.86
2019-02-27T23:08:24.060Z,73.86
2019-02-27T23:10:53.561Z,74.25
2019-02-27T23:13:23.114Z,74.47
2019-02-27T23:15:57.894Z,74.86
2019-02-27T23:18:24.302Z,75.21
2019-02-27T23:20:55.384Z,75.73
2019-02-27T23:23:24.714Z,75.85
2019-02-27T23:25:54.118Z,76.42
2019-02-27T23:28:23.410Z,76.50
2019-02-27T23:30:52.773Z,76.57
2019-02-27T23:33:24.578Z,76.67
2019-02-27T23:35:53.261Z,76.66
2019-02-27T23:38:22.671Z,76.66
2019-02-27T23:40:51.968Z,76.99
2019-02-27T23:43:21.704Z,77.09
2019-02-27T23:45:51.047Z,77.26
2019-02-27T23:48:20.430Z,77.56
2019-02-27T23:50:49.754Z,77.62
2019-02-27T23:53:19.060Z,77.38
2019-02-27T23:55:48.470Z,77.49
2019-02-27T23:58:17.759Z,77.84
